Time;durP1;ratioP1;P1;durP2;ratioP2;P2;SDS_P1;SDS_P2;PMS_P1;PMS_P2;Temp;Humidity;BMP_temperature;BMP_pressure;BME280_temperature;BME280_humidity;BME280_pressure;Samples;Min_cycle;Max_cycle;Signal;HPM_P1;HPM_P2
2022/08/18 08:37:07;;;;;;;9.57;6.93;;;21.40;99.90;;;;;;5077309;28;20311;-46
2022/08/18 08:39:34;;;;;;;13.00;7.45;;;22.10;99.90;;;;;;5056989;28;20075;-48
2022/08/18 08:42:01;;;;;;;12.00;7.68;;;22.20;99.90;;;;;;5065213;28;20543;-43
2022/08/18 08:44:48;;;;;;;8.93;6.72;;;22.40;99.90;;;;;;5070390;28;20037;-48
2022/08/18 08:47:25;;;;;;;10.70;6.70;;;22.50;99.90;;;;;;5070202;28;20110;-47
2022/08/18 08:49:52;;;;;;;7.43;5.75;;;22.40;99.90;;;;;;5064823;28;20427;-45
2022/08/18 08:52:26;;;;;;;9.93;6.03;;;22.40;99.90;;;;;;5069938;28;20091;-46
2022/08/18 08:54:53;;;;;;;8.02;6.28;;;22.40;99.90;;;;;;5064008;28;20052;-47
2022/08/18 08:57:19;;;;;;;8.10;6.10;;;22.40;99.90;;;;;;5070100;28;20043;-45
2022/08/18 08:59:46;;;;;;;9.15;6.18;;;22.50;99.90;;;;;;5070036;28;20091;-42
2022/08/18 09:02:13;;;;;;;8.40;5.97;;;22.40;99.90;;;;;;5069809;28;20067;-42
2022/08/18 09:05:01;;;;;;;8.18;6.57;;;22.50;99.90;;;;;;5066036;28;20056;-47
2022/08/18 09:07:35;;;;;;;;;;;22.50;99.90;;;;;;5069961;28;20052;-48
2022/08/18 09:10:04;;;;;;;8.95;7.00;;;22.50;99.90;;;;;;5062428;28;20387;-48
2022/08/18 09:12:31;;;;;;;10.55;7.32;;;22.60;99.90;;;;;;5052069;28;20075;-47
2022/08/18 09:14:58;;;;;;;10.15;6.63;;;22.60;99.90;;;;;;5069708;28;20033;-45
2022/08/18 09:17:24;;;;;;;8.63;6.43;;;22.80;99.60;;;;;;5069558;28;20511;-46
2022/08/18 09:19:59;;;;;;;8.43;6.30;;;22.80;99.60;;;;;;5069522;28;20051;-44
2022/08/18 09:22:28;;;;;;;8.65;6.15;;;22.70;99.90;;;;;;5068540;28;20044;-47
2022/08/18 09:24:55;;;;;;;7.85;5.93;;;22.80;99.90;;;;;;5069219;28;20072;-50
2022/08/18 09:27:22;;;;;;;9.25;6.30;;;22.90;99.80;;;;;;5069389;28;20354;-44
2022/08/18 09:29:48;;;;;;;6.85;5.50;;;23.10;99.30;;;;;;5063015;28;20036;-47
2022/08/18 09:32:15;;;;;;;7.63;5.75;;;23.20;98.80;;;;;;5048772;28;20560;-44
2022/08/18 09:34:43;;;;;;;6.40;5.15;;;23.40;98.00;;;;;;5063278;28;20481;-43
2022/08/18 09:37:11;;;;;;;8.77;5.57;;;23.60;97.90;;;;;;5060245;28;20037;-42
2022/08/18 09:42:23;;;;;;;9.70;5.47;;;24.20;97.60;;;;;;5054349;28;20448;-48
2022/08/18 09:44:55;;;;;;;8.00;5.80;;;24.40;97.10;;;;;;5049417;28;20135;-39
2022/08/18 09:47:24;;;;;;;11.07;6.55;;;24.60;96.50;;;;;;5046917;28;20088;-41
2022/08/18 09:49:55;;;;;;;11.95;5.82;;;24.40;97.00;;;;;;5046840;28;20048;-46
2022/08/18 09:52:22;;;;;;;12.40;5.90;;;24.10;96.90;;;;;;5055205;28;20063;-53
2022/08/18 09:54:50;;;;;;;8.75;5.55;;;23.90;96.90;;;;;;5051456;28;20064;-40
2022/08/18 13:33:41;;;;;;;10.13;6.05;;;25.80;90.60;;;;;;5110328;27;20442;-43
2022/08/18 13:36:24;;;;;;;6.93;5.50;;;25.90;91.60;;;;;;5090190;28;20044;-42
2022/08/18 13:38:54;;;;;;;7.45;6.15;;;26.00;90.80;;;;;;5092858;28;20032;-49
2022/08/18 13:41:21;;;;;;;8.73;5.40;;;26.10;90.80;;;;;;5090924;28;20036;-45
2022/08/18 13:43:48;;;;;;;8.80;5.72;;;26.10;89.00;;;;;;5090504;28;20446;-51
2022/08/18 13:46:18;;;;;;;7.07;6.35;;;26.00;88.40;;;;;;5089977;28;20119;-40
2022/08/18 13:48:49;;;;;;;7.35;6.00;;;26.00;90.00;;;;;;5083808;28;20032;-42
2022/08/18 13:51:16;;;;;;;6.22;5.20;;;25.90;90.10;;;;;;5090561;28;20032;-44
2022/08/18 13:53:43;;;;;;;10.30;5.00;;;25.90;89.20;;;;;;5090337;28;20046;-46
2022/08/18 13:56:23;;;;;;;5.55;4.60;;;26.00;88.70;;;;;;5089954;28;20421;-47
2022/08/18 13:58:57;;;;;;;5.43;3.87;;;26.10;88.00;;;;;;5088856;28;20037;-45
2022/08/18 14:01:24;;;;;;;5.60;4.75;;;26.30;86.60;;;;;;5090692;28;20261;-51
2022/08/18 14:04:11;;;;;;;7.53;4.93;;;26.40;85.90;;;;;;5092319;28;20040;-43
2022/08/18 14:06:45;;;;;;;10.20;5.10;;;26.50;86.20;;;;;;5093078;28;20111;-44
2022/08/18 14:09:22;;;;;;;6.30;5.40;;;26.60;86.80;;;;;;5089817;28;20044;-51
2022/08/18 14:12:02;;;;;;;4.95;4.45;;;26.60;86.90;;;;;;5090102;28;20443;-50
2022/08/18 14:14:30;;;;;;;5.60;4.93;;;26.60;87.50;;;;;;5092495;28;20555;-47
2022/08/18 14:16:57;;;;;;;6.68;5.60;;;26.60;87.80;;;;;;5089737;28;20402;-44
2022/08/18 14:27:59;;;;;;;7.75;5.05;;;27.00;86.20;;;;;;5075246;28;20412;-41
2022/08/18 14:30:30;;;;;;;5.70;5.10;;;26.90;86.20;;;;;;5089513;28;20079;-43
2022/08/18 14:32:57;;;;;;;8.32;5.53;;;26.80;85.90;;;;;;5090428;28;20141;-50
2022/08/18 14:35:24;;;;;;;5.30;4.78;;;26.90;86.00;;;;;;5088269;28;20044;-47
2022/08/18 14:38:10;;;;;;;7.45;4.93;;;26.90;85.10;;;;;;5089489;28;20044;-43
2022/08/18 14:40:37;;;;;;;6.88;4.75;;;27.10;85.00;;;;;;5089121;28;20040;-44
2022/08/18 14:43:08;;;;;;;7.85;4.80;;;27.20;84.70;;;;;;5089706;28;20124;-43
2022/08/18 14:45:35;;;;;;;7.47;4.60;;;27.30;85.10;;;;;;5069509;28;20044;-41
2022/08/18 14:48:02;;;;;;;7.25;4.88;;;27.40;84.00;;;;;;5075822;28;20491;-41
2022/08/18 14:50:32;;;;;;;5.82;4.28;;;27.50;83.60;;;;;;5075101;28;20048;-42
2022/08/18 14:53:00;;;;;;;5.78;4.22;;;27.40;83.60;;;;;;5068105;28;20051;-40
2022/08/18 14:55:27;;;;;;;9.13;4.38;;;27.40;83.10;;;;;;5069089;28;20479;-39
2022/08/18 14:57:56;;;;;;;7.10;4.80;;;27.30;83.70;;;;;;5080605;28;20493;-45
2022/08/18 15:00:25;;;;;;;5.03;4.50;;;27.30;83.90;;;;;;5069184;28;20037;-48
2022/08/18 15:02:53;;;;;;;5.70;4.60;;;27.30;84.70;;;;;;5069259;28;20044;-41
2022/08/18 15:05:19;;;;;;;6.90;4.90;;;27.30;84.60;;;;;;5075109;28;20044;-46
2022/08/18 15:07:50;;;;;;;7.25;4.72;;;27.20;84.30;;;;;;5069277;28;20044;-43
2022/08/18 15:10:18;;;;;;;5.53;5.00;;;27.20;84.60;;;;;;5075340;28;20131;-41
2022/08/18 15:12:53;;;;;;;5.97;4.95;;;27.20;84.60;;;;;;5077250;28;20120;-42
2022/08/18 15:15:20;;;;;;;5.78;4.53;;;27.20;84.70;;;;;;5075275;28;20039;-47
2022/08/18 15:17:48;;;;;;;4.82;4.32;;;27.30;83.90;;;;;;5076322;28;20045;-49
2022/08/18 15:20:18;;;;;;;7.75;4.47;;;27.30;84.00;;;;;;5075022;28;20036;-44
2022/08/18 15:25:53;;;;;;;5.60;4.32;;;27.30;84.70;;;;;;5056599;28;20060;-43
2022/08/18 15:28:22;;;;;;;10.32;4.70;;;27.20;84.50;;;;;;5068660;28;20140;-44
2022/08/18 15:30:50;;;;;;;6.82;4.53;;;27.20;84.30;;;;;;5068636;28;20040;-45
2022/08/18 15:33:17;;;;;;;6.30;5.10;;;27.10;85.20;;;;;;5074527;28;20093;-48
2022/08/18 15:35:52;;;;;;;6.97;4.57;;;27.10;85.50;;;;;;5068891;28;20090;-44
2022/08/18 15:38:19;;;;;;;6.50;4.40;;;27.10;86.20;;;;;;5074868;28;20044;-46
2022/08/18 15:40:46;;;;;;;5.85;4.65;;;27.10;85.60;;;;;;5077829;28;20049;-44
2022/08/18 15:43:18;;;;;;;6.63;5.28;;;27.10;85.30;;;;;;5074670;28;20044;-43
2022/08/18 15:45:46;;;;;;;8.35;5.00;;;27.10;85.90;;;;;;5074933;28;20037;-46
2022/08/18 15:48:23;;;;;;;11.25;5.05;;;27.10;86.80;;;;;;5073507;28;20043;-47
2022/08/18 15:50:50;;;;;;;9.02;5.13;;;27.20;87.40;;;;;;5074528;28;20090;-44
2022/08/18 15:53:17;;;;;;;7.43;4.68;;;27.10;87.50;;;;;;5074360;28;20036;-45
2022/08/18 15:55:44;;;;;;;6.72;4.78;;;27.10;87.20;;;;;;5073383;28;20075;-46
2022/08/18 15:58:10;;;;;;;5.38;4.20;;;27.10;87.30;;;;;;5074477;28;20064;-44
2022/08/18 16:00:38;;;;;;;7.05;5.10;;;27.20;87.10;;;;;;5073065;28;20037;-41
2022/08/18 16:03:05;;;;;;;10.07;4.60;;;27.20;87.20;;;;;;5074405;28;20048;-48
2022/08/18 16:05:35;;;;;;;10.10;5.32;;;27.10;87.70;;;;;;5074294;28;20055;-46
2022/08/18 16:08:02;;;;;;;8.98;4.70;;;27.00;88.20;;;;;;5074135;28;20124;-46
2022/08/18 16:10:31;;;;;;;13.23;4.43;;;26.90;88.40;;;;;;5074037;28;20037;-43
2022/08/18 16:12:58;;;;;;;8.23;5.05;;;26.80;89.10;;;;;;5072901;28;20040;-41
2022/08/18 16:15:24;;;;;;;7.10;4.97;;;26.80;89.40;;;;;;5072646;28;20041;-44
2022/08/18 16:17:51;;;;;;;8.15;5.00;;;26.70;89.10;;;;;;5078980;28;20048;-41
2022/08/18 16:20:18;;;;;;;8.35;4.82;;;26.60;89.10;;;;;;5073930;28;20218;-44
2022/08/18 16:22:45;;;;;;;11.15;4.85;;;26.50;89.90;;;;;;5073909;28;20072;-48
2022/08/18 16:25:12;;;;;;;7.72;4.60;;;26.40;90.10;;;;;;5073962;28;20044;-48
2022/08/18 16:27:40;;;;;;;8.35;4.85;;;26.30;90.30;;;;;;5073730;28;20072;-44
2022/08/18 16:30:07;;;;;;;7.22;4.70;;;26.20;90.30;;;;;;5073869;28;20048;-46
2022/08/18 16:32:33;;;;;;;10.90;4.63;;;26.10;90.20;;;;;;5073370;28;20098;-43
2022/08/18 16:35:00;;;;;;;9.63;4.95;;;26.10;90.40;;;;;;5057952;28;20040;-51
2022/08/18 16:37:28;;;;;;;8.18;4.53;;;26.00;90.50;;;;;;5073641;28;20094;-43
2022/08/18 16:39:55;;;;;;;9.38;4.72;;;26.00;90.70;;;;;;5067216;28;20445;-44
2022/08/18 16:42:22;;;;;;;7.40;4.50;;;25.90;90.70;;;;;;5067118;28;20123;-45
2022/08/18 16:44:48;;;;;;;8.02;4.30;;;25.90;90.50;;;;;;5067669;28;20090;-40
2022/08/18 16:47:17;;;;;;;9.27;4.20;;;25.90;90.50;;;;;;5073400;28;20398;-49
2022/08/18 16:49:48;;;;;;;5.95;3.97;;;25.80;90.40;;;;;;5073206;28;20445;-45
2022/08/18 16:52:15;;;;;;;8.15;3.92;;;25.80;90.40;;;;;;5067003;28;20047;-39
2022/08/18 16:54:43;;;;;;;8.13;4.05;;;25.80;90.50;;;;;;5067157;28;20109;-43
2022/08/18 16:57:10;;;;;;;6.95;3.72;;;25.80;90.50;;;;;;5073215;28;20075;-44
2022/08/18 17:05:09;;;;;;;8.07;3.42;;;26.30;89.60;;;;;;5073204;28;20111;-42
2022/08/18 17:07:36;;;;;;;7.45;3.08;;;26.90;88.60;;;;;;5072959;28;20044;-51
2022/08/18 17:10:02;;;;;;;7.18;3.40;;;27.40;87.30;;;;;;5071933;28;20068;-47
2022/08/18 17:12:29;;;;;;;7.47;3.45;;;27.90;85.90;;;;;;5073041;28;20036;-49
2022/08/18 17:14:56;;;;;;;6.72;3.08;;;28.30;85.10;;;;;;5076986;28;20111;-41
2022/08/18 17:17:22;;;;;;;7.47;2.90;;;28.60;84.00;;;;;;5072976;28;20040;-42
2022/08/18 17:19:50;;;;;;;7.32;2.90;;;28.90;83.60;;;;;;5073070;28;20086;-45
2022/08/18 17:22:16;;;;;;;4.60;2.72;;;29.20;82.50;;;;;;5072218;28;20124;-45
2022/08/18 17:24:43;;;;;;;7.13;4.45;;;29.40;81.40;;;;;;5073058;28;20059;-41
2022/08/18 17:27:16;;;;;;;9.40;3.78;;;29.60;81.20;;;;;;5072940;28;20134;-42
2022/08/18 17:29:52;;;;;;;7.00;4.47;;;29.60;79.90;;;;;;5072981;28;20043;-45
2022/08/18 17:32:19;;;;;;;8.60;4.68;;;29.20;80.20;;;;;;5071432;28;20131;-46
2022/08/18 17:34:48;;;;;;;6.57;3.38;;;29.40;80.70;;;;;;5077371;28;20045;-50
2022/08/18 17:37:16;;;;;;;5.25;3.58;;;29.50;79.70;;;;;;5073003;28;20041;-42
2022/08/18 17:39:43;;;;;;;5.75;3.05;;;29.70;80.00;;;;;;5072401;28;20054;-41
2022/08/18 17:42:25;;;;;;;5.68;2.83;;;29.80;78.70;;;;;;5072968;28;20119;-50
2022/08/18 17:44:51;;;;;;;6.60;3.53;;;29.80;79.00;;;;;;5073003;28;20041;-51
2022/08/18 17:47:19;;;;;;;5.50;3.00;;;29.80;78.40;;;;;;5076272;28;20065;-47
2022/08/18 17:52:51;;;;;;;;;;;29.10;79.30;;;;;;5070078;28;20548;-46
2022/08/18 17:55:19;;;;;;;5.88;2.90;;;28.60;79.90;;;;;;5072857;28;20019;-48
2022/08/18 17:57:46;;;;;;;8.13;3.58;;;28.00;81.20;;;;;;5072679;28;20124;-43
2022/08/18 18:00:24;;;;;;;6.53;3.10;;;27.60;81.80;;;;;;5066142;28;20491;-43
2022/08/18 18:02:51;;;;;;;6.53;3.00;;;27.20;82.80;;;;;;5072629;28;20040;-45
2022/08/18 18:05:18;;;;;;;5.50;3.40;;;26.90;83.80;;;;;;5072684;28;20072;-42
2022/08/18 18:07:45;;;;;;;7.25;3.25;;;26.80;84.40;;;;;;5072731;28;20048;-42
2022/08/18 18:10:13;;;;;;;6.63;3.30;;;26.60;84.70;;;;;;5072551;28;20041;-44
2022/08/18 18:12:39;;;;;;;9.20;4.50;;;26.40;85.50;;;;;;5072458;28;20090;-41
2022/08/18 18:15:06;;;;;;;6.45;3.08;;;26.40;85.90;;;;;;5072501;28;20045;-48
2022/08/18 18:17:36;;;;;;;6.15;3.33;;;26.50;85.70;;;;;;5072550;28;20052;-43
2022/08/18 18:20:03;;;;;;;5.78;3.42;;;26.40;85.80;;;;;;5075598;28;20044;-38
2022/08/18 18:22:29;;;;;;;5.95;2.92;;;26.30;85.60;;;;;;5078189;28;20071;-49
2022/08/18 18:24:56;;;;;;;9.40;3.22;;;26.10;86.00;;;;;;5076297;28;20052;-44
2022/08/18 18:27:23;;;;;;;5.68;3.40;;;25.90;86.60;;;;;;5076153;28;20093;-45
2022/08/18 18:29:50;;;;;;;4.88;3.08;;;25.80;86.50;;;;;;5075999;28;20379;-38
2022/08/18 18:32:16;;;;;;;4.68;3.00;;;25.70;86.90;;;;;;5075973;28;20070;-45
2022/08/18 18:34:43;;;;;;;7.70;3.38;;;25.50;87.10;;;;;;5078860;28;20050;-45
2022/08/18 18:37:10;;;;;;;7.05;3.47;;;25.30;87.60;;;;;;5077867;28;20078;-48
2022/08/18 18:39:37;;;;;;;10.35;3.65;;;25.20;88.00;;;;;;5074708;28;20036;-40
2022/08/18 18:42:04;;;;;;;6.43;3.35;;;25.10;88.30;;;;;;5075978;28;20072;-48
2022/08/18 18:44:31;;;;;;;6.47;3.20;;;25.00;88.50;;;;;;5075900;28;20079;-48
2022/08/18 18:47:00;;;;;;;6.45;3.50;;;24.90;88.90;;;;;;5076945;28;20163;-46
2022/08/18 18:49:27;;;;;;;10.20;3.58;;;24.90;89.30;;;;;;5075810;28;20436;-42
2022/08/18 18:51:53;;;;;;;8.40;3.30;;;24.80;89.20;;;;;;5075780;28;20044;-40
2022/08/18 18:54:20;;;;;;;6.22;3.35;;;24.70;89.70;;;;;;5075622;28;20037;-41
2022/08/18 18:56:47;;;;;;;6.22;2.92;;;24.60;89.80;;;;;;5074347;28;20057;-43
2022/08/18 18:59:14;;;;;;;7.40;3.28;;;24.50;90.00;;;;;;5075670;28;20059;-41
2022/08/18 19:01:40;;;;;;;5.78;3.10;;;24.40;90.00;;;;;;5075538;28;20044;-45
2022/08/18 19:04:07;;;;;;;7.63;3.10;;;24.40;90.10;;;;;;5075597;28;20109;-53
2022/08/18 19:06:34;;;;;;;5.82;3.45;;;24.30;90.20;;;;;;5075334;28;20066;-45
2022/08/18 19:09:01;;;;;;;5.15;3.20;;;24.20;90.40;;;;;;5075381;28;20055;-38
2022/08/18 19:11:28;;;;;;;6.00;3.13;;;24.10;90.40;;;;;;5075237;28;20044;-44
2022/08/18 19:13:55;;;;;;;5.70;3.65;;;24.00;90.60;;;;;;5075226;28;20043;-47
2022/08/18 19:16:22;;;;;;;6.03;3.03;;;23.90;90.70;;;;;;5075245;28;20037;-46
2022/08/18 19:18:50;;;;;;;5.63;3.10;;;23.80;90.80;;;;;;5079080;28;20048;-42
2022/08/18 19:21:36;;;;;;;5.13;3.28;;;23.70;90.90;;;;;;5075198;28;20040;-43
2022/08/18 19:24:24;;;;;;;6.13;3.40;;;23.70;90.90;;;;;;5075398;28;20043;-42
2022/08/18 19:26:50;;;;;;;5.65;3.03;;;23.50;91.00;;;;;;5072532;28;20040;-38
2022/08/18 19:29:17;;;;;;;4.63;3.03;;;23.40;90.80;;;;;;5071886;28;20054;-42
2022/08/18 19:31:44;;;;;;;3.10;2.38;;;23.40;90.80;;;;;;5069480;28;20044;-47
2022/08/18 19:34:11;;;;;;;5.70;2.70;;;23.30;90.60;;;;;;5071640;28;20039;-48
2022/08/18 19:36:40;;;;;;;3.25;2.38;;;23.20;90.60;;;;;;5072516;28;20044;-44
2022/08/18 19:39:09;;;;;;;4.45;2.45;;;23.10;90.60;;;;;;5073694;28;20036;-41
2022/08/18 19:41:38;;;;;;;7.00;2.45;;;23.00;90.50;;;;;;5072450;28;20386;-41
2022/08/18 19:44:05;;;;;;;4.32;2.30;;;23.00;90.60;;;;;;5071978;28;20068;-46
2022/08/18 19:46:34;;;;;;;5.25;2.65;;;22.90;90.70;;;;;;5070642;28;20036;-47
2022/08/18 19:49:01;;;;;;;4.20;2.10;;;22.80;90.70;;;;;;5068371;28;21500;-45
2022/08/18 19:51:28;;;;;;;6.28;2.45;;;22.80;90.90;;;;;;5070054;28;20044;-44
2022/08/18 19:53:55;;;;;;;5.63;2.55;;;22.70;90.90;;;;;;5071068;28;20040;-44
2022/08/18 19:56:21;;;;;;;5.53;2.38;;;22.60;91.10;;;;;;5069952;28;20064;-42
2022/08/18 19:58:50;;;;;;;4.05;2.40;;;22.60;91.10;;;;;;5075914;28;20115;-46
2022/08/18 20:01:37;;;;;;;6.85;2.40;;;22.50;91.00;;;;;;5067921;28;20039;-41
2022/08/18 20:04:03;;;;;;;5.38;2.40;;;22.50;91.10;;;;;;5075630;28;20040;-44
2022/08/18 20:06:30;;;;;;;3.88;2.25;;;22.50;91.10;;;;;;5074347;28;20048;-42
2022/08/18 20:09:01;;;;;;;5.03;2.20;;;22.40;91.10;;;;;;5074712;28;20041;-43
2022/08/18 20:11:27;;;;;;;3.47;2.05;;;22.40;91.10;;;;;;5076923;28;20068;-45
2022/08/18 20:14:07;;;;;;;3.58;2.10;;;22.30;91.10;;;;;;5075094;28;20040;-41
2022/08/18 20:16:36;;;;;;;3.15;2.00;;;22.30;91.10;;;;;;5075595;28;20071;-45
2022/08/18 20:19:09;;;;;;;4.00;2.08;;;22.30;91.20;;;;;;5072019;28;20029;-42
2022/08/18 20:21:42;;;;;;;6.85;2.10;;;22.20;91.20;;;;;;5071267;28;20167;-45
2022/08/18 20:24:09;;;;;;;4.20;2.20;;;22.20;91.30;;;;;;5069333;28;20056;-42
2022/08/18 20:26:36;;;;;;;5.60;2.17;;;22.10;91.30;;;;;;5071660;28;20047;-40
2022/08/18 20:29:03;;;;;;;5.43;2.30;;;22.10;91.40;;;;;;5071785;28;20044;-46
2022/08/18 20:31:30;;;;;;;5.45;2.30;;;22.00;91.50;;;;;;5067672;28;20040;-42
2022/08/18 20:33:59;;;;;;;5.10;2.33;;;21.90;91.50;;;;;;5067238;28;20123;-43
2022/08/18 20:36:26;;;;;;;4.68;1.90;;;21.90;91.60;;;;;;5073704;28;20049;-49
2022/08/18 20:38:53;;;;;;;5.78;2.40;;;21.90;91.70;;;;;;5073643;28;20045;-40
2022/08/18 20:41:20;;;;;;;7.03;2.63;;;21.80;91.80;;;;;;5073042;28;20033;-43
2022/08/18 20:43:46;;;;;;;4.15;2.15;;;21.70;91.90;;;;;;5073647;28;20040;-42
2022/08/18 20:46:13;;;;;;;5.10;2.50;;;21.70;92.10;;;;;;5073671;28;20040;-41
2022/08/18 20:48:40;;;;;;;8.57;2.58;;;21.70;92.20;;;;;;5077129;28;20040;-42
2022/08/18 20:51:07;;;;;;;4.85;2.67;;;21.60;92.40;;;;;;5073382;28;20574;-45
2022/08/18 20:53:34;;;;;;;3.35;2.38;;;21.50;92.50;;;;;;5073293;28;20040;-46
2022/08/18 20:56:01;;;;;;;4.25;2.58;;;21.50;92.80;;;;;;5071638;28;20067;-46
2022/08/18 20:58:48;;;;;;;7.72;2.90;;;21.50;92.90;;;;;;5072334;28;20056;-41
2022/08/18 21:01:15;;;;;;;8.38;2.45;;;21.40;93.00;;;;;;5075046;28;20036;-43
2022/08/18 21:03:42;;;;;;;3.65;2.38;;;21.40;93.10;;;;;;5073359;28;20040;-39
2022/08/18 21:06:09;;;;;;;7.35;2.67;;;21.40;93.20;;;;;;5071986;28;20047;-42
2022/08/18 21:08:36;;;;;;;4.13;2.65;;;21.30;93.30;;;;;;5073448;28;20048;-43
2022/08/18 21:11:03;;;;;;;6.28;2.90;;;21.20;93.40;;;;;;5071720;28;20040;-50
2022/08/18 21:13:30;;;;;;;6.25;2.65;;;21.20;93.40;;;;;;5061730;28;20406;-43
2022/08/18 21:15:57;;;;;;;5.50;2.83;;;21.20;93.60;;;;;;5073048;28;20417;-45
2022/08/18 21:18:23;;;;;;;4.53;2.55;;;21.20;93.70;;;;;;5066893;28;20123;-49
2022/08/18 21:20:50;;;;;;;7.75;2.90;;;21.10;94.00;;;;;;5065966;28;20033;-40
2022/08/18 21:23:17;;;;;;;6.43;3.15;;;21.10;94.10;;;;;;5072850;28;20041;-42
2022/08/18 21:25:44;;;;;;;7.30;3.10;;;21.00;94.20;;;;;;5072729;28;20407;-49
2022/08/18 21:28:11;;;;;;;5.88;3.10;;;21.00;94.40;;;;;;5071699;28;20145;-47
2022/08/18 21:30:38;;;;;;;6.63;2.97;;;20.90;94.50;;;;;;5072580;28;20036;-40
2022/08/18 21:33:04;;;;;;;10.20;3.22;;;20.90;94.70;;;;;;5077896;28;20055;-46
2022/08/18 21:35:31;;;;;;;4.82;3.00;;;20.80;94.80;;;;;;5071839;28;20040;-48
2022/08/18 21:37:58;;;;;;;6.95;3.08;;;20.80;95.00;;;;;;5072600;28;20048;-44
